Time;durP1;ratioP1;P1;durP2;ratioP2;P2;SDS_P1;SDS_P2;PMS_P1;PMS_P2;Temp;Humidity;BMP_temperature;BMP_pressure;BME280_temperature;BME280_humidity;BME280_pressure;Samples;Min_cycle;Max_cycle;Signal;HPM_P1;HPM_P2
2022/12/29 00:02:10;;;;;;;3.00;1.55;;;16.30;91.40;;;;;;5063340;28;20174;-93
2022/12/29 00:04:36;;;;;;;4.13;1.75;;;16.30;91.40;;;;;;5053280;28;20477;-90
2022/12/29 00:07:04;;;;;;;3.35;1.73;;;16.30;91.40;;;;;;5068937;28;20485;-92
2022/12/29 00:09:29;;;;;;;5.72;2.08;;;16.30;91.40;;;;;;5073164;28;20027;-92
2022/12/29 00:11:55;;;;;;;9.57;2.45;;;16.30;91.40;;;;;;5072886;28;20115;-92
2022/12/29 00:17:05;;;;;;;6.68;1.63;;;16.30;91.40;;;;;;5074324;28;20073;-92
2022/12/29 00:36:13;;;;;;;6.05;2.15;;;16.30;91.40;;;;;;5073875;28;20566;-91
2022/12/29 00:44:13;;;;;;;3.85;1.70;;;16.30;91.50;;;;;;5054232;28;20406;-91
2022/12/29 00:46:42;;;;;;;3.63;1.70;;;16.30;91.40;;;;;;5053105;28;20017;-92
2022/12/29 00:49:30;;;;;;;15.10;2.40;;;16.30;91.50;;;;;;5070159;28;20024;-92
2022/12/29 00:51:58;;;;;;;3.80;1.80;;;16.30;91.50;;;;;;5069168;28;20263;-92
2022/12/29 00:54:23;;;;;;;5.35;1.63;;;16.30;91.50;;;;;;5072746;28;20035;-92
2022/12/29 00:56:50;;;;;;;6.32;1.90;;;16.30;91.50;;;;;;5072883;28;20405;-93
2022/12/29 00:59:17;;;;;;;7.72;2.05;;;16.30;91.50;;;;;;5072457;28;20060;-92
2022/12/29 01:01:43;;;;;;;3.83;1.55;;;16.30;91.50;;;;;;5072156;28;20021;-92
2022/12/29 01:04:09;;;;;;;7.38;1.42;;;16.30;91.50;;;;;;5072404;28;20516;-93
2022/12/29 01:06:36;;;;;;;4.00;1.83;;;16.30;91.50;;;;;;5073149;28;20032;-92
2022/12/29 01:11:47;;;;;;;4.47;2.15;;;16.30;91.50;;;;;;5073009;28;20028;-90
2022/12/29 01:14:13;;;;;;;3.28;1.60;;;16.30;91.60;;;;;;5072115;28;20028;-93
2022/12/29 01:16:39;;;;;;;2.08;1.30;;;16.30;91.60;;;;;;5063642;28;20048;-89
2022/12/29 01:19:04;;;;;;;3.00;1.42;;;16.30;91.60;;;;;;5056401;28;20025;-91
2022/12/29 01:21:30;;;;;;;6.05;1.65;;;16.30;91.50;;;;;;5070513;28;20024;-89
2022/12/29 01:23:56;;;;;;;8.38;1.50;;;16.30;91.60;;;;;;5056677;28;20026;-92
2022/12/29 01:26:22;;;;;;;3.63;1.40;;;16.30;91.60;;;;;;5062325;28;20497;-91
2022/12/29 01:28:47;;;;;;;4.88;1.63;;;16.30;91.90;;;;;;5051422;28;20563;-90
2022/12/29 01:31:15;;;;;;;8.23;2.13;;;16.30;92.00;;;;;;5066563;28;20410;-91
2022/12/29 01:33:42;;;;;;;8.32;1.80;;;16.30;91.60;;;;;;5072245;28;20100;-91
2022/12/29 01:36:10;;;;;;;3.75;1.33;;;16.30;91.80;;;;;;5056418;28;20409;-92
2022/12/29 01:38:37;;;;;;;8.35;1.92;;;16.30;91.80;;;;;;5051233;28;20056;-90
2022/12/29 01:41:03;;;;;;;11.70;2.35;;;16.30;91.70;;;;;;5051598;28;20025;-92
2022/12/29 01:43:40;;;;;;;6.90;1.80;;;16.30;91.80;;;;;;5051842;28;20115;-91
2022/12/29 01:46:24;;;;;;;13.23;2.28;;;16.30;91.80;;;;;;5059302;28;20013;-90
2022/12/29 01:48:59;;;;;;;11.60;2.25;;;16.30;91.70;;;;;;5071926;28;20032;-91
2022/12/29 01:51:27;;;;;;;6.90;1.90;;;16.30;91.70;;;;;;5072043;28;20063;-92
2022/12/29 01:53:56;;;;;;;7.30;1.77;;;16.30;91.70;;;;;;5066228;28;20225;-90
2022/12/29 01:56:22;;;;;;;9.90;2.28;;;16.30;91.60;;;;;;5051577;28;20086;-91
2022/12/29 01:58:54;;;;;;;12.40;2.50;;;16.30;91.60;;;;;;5051192;28;20115;-90
2022/12/29 02:01:21;;;;;;;8.27;2.45;;;16.30;91.60;;;;;;5051077;28;20025;-92
2022/12/29 02:03:48;;;;;;;5.63;2.45;;;16.30;91.50;;;;;;5063950;28;20017;-90
2022/12/29 02:06:35;;;;;;;5.20;1.98;;;16.30;91.50;;;;;;5072373;28;20064;-92
2022/12/29 02:09:00;;;;;;;6.10;2.30;;;16.30;91.50;;;;;;5075400;28;20123;-92
2022/12/29 02:11:28;;;;;;;11.70;3.05;;;16.30;91.50;;;;;;5075839;28;20052;-92
2022/12/29 02:13:53;;;;;;;8.77;2.55;;;16.30;91.50;;;;;;5075770;28;20575;-92
2022/12/29 02:16:44;;;;;;;6.30;2.58;;;16.30;91.50;;;;;;5062035;28;20033;-92
2022/12/29 02:19:47;;;;;;;5.40;1.67;;;16.40;91.50;;;;;;5071608;28;20024;-92
2022/12/29 02:22:55;;;;;;;3.10;1.55;;;16.30;91.40;;;;;;5068051;28;20025;-91
2022/12/29 02:25:35;;;;;;;7.50;1.90;;;16.30;91.40;;;;;;5055468;28;20021;-92
2022/12/29 02:28:32;;;;;;;5.05;1.83;;;16.30;91.40;;;;;;5055734;28;20120;-92
2022/12/29 02:31:33;;;;;;;4.05;1.65;;;16.40;91.40;;;;;;5059342;28;20021;-91
2022/12/29 02:34:39;;;;;;;13.70;1.95;;;16.40;91.40;;;;;;5074822;28;20545;-92
2022/12/29 02:37:09;;;;;;;6.07;1.73;;;16.40;91.40;;;;;;5073702;28;20028;-90
2022/12/29 02:39:47;;;;;;;2.35;1.40;;;16.40;91.40;;;;;;5074956;28;20021;-91
2022/12/29 02:42:36;;;;;;;2.75;1.73;;;16.30;91.30;;;;;;5075852;28;20020;-92
2022/12/29 02:45:08;;;;;;;8.38;2.00;;;16.40;91.40;;;;;;5067340;28;20070;-92
2022/12/29 02:47:56;;;;;;;6.78;1.67;;;16.30;91.40;;;;;;5076111;28;20024;-93
2022/12/29 02:51:02;;;;;;;2.60;1.48;;;16.30;91.30;;;;;;5075334;28;20565;-93
2022/12/29 02:56:14;;;;;;;5.45;1.60;;;16.40;91.30;;;;;;4995003;28;20131;-92
2022/12/29 02:58:39;;;;;;;2.88;1.60;;;16.40;91.30;;;;;;4994901;28;20138;-90
2022/12/29 03:01:33;;;;;;;2.45;1.58;;;16.40;91.30;;;;;;4977995;28;20034;-92
2022/12/29 03:04:06;;;;;;;7.65;1.52;;;16.30;91.30;;;;;;4977962;28;20030;-92
2022/12/29 03:06:54;;;;;;;2.80;2.00;;;16.30;91.30;;;;;;4977731;28;20528;-92
2022/12/29 03:09:26;;;;;;;3.15;1.63;;;16.40;91.30;;;;;;4978363;28;20077;-91
2022/12/29 03:12:10;;;;;;;2.40;1.35;;;16.30;91.20;;;;;;4958648;28;20062;-92
2022/12/29 03:17:54;;;;;;;5.22;1.83;;;16.40;91.30;;;;;;4993527;28;20132;-91
2022/12/29 03:20:52;;;;;;;5.45;1.60;;;16.40;91.50;;;;;;4974637;28;20522;-92
2022/12/29 03:23:21;;;;;;;2.90;1.85;;;16.30;91.50;;;;;;4974312;28;20027;-92
2022/12/29 03:25:50;;;;;;;5.20;1.70;;;16.30;91.40;;;;;;4974753;28;20027;-91
2022/12/29 03:28:30;;;;;;;3.70;1.42;;;16.40;91.40;;;;;;5049615;28;20029;-92
2022/12/29 03:30:58;;;;;;;2.50;1.65;;;16.30;91.40;;;;;;5069659;28;20094;-92
2022/12/29 03:33:27;;;;;;;3.60;1.65;;;16.30;91.40;;;;;;5074445;28;20063;-92
2022/12/29 03:35:58;;;;;;;3.28;2.03;;;16.40;91.40;;;;;;5075584;28;20042;-92
2022/12/29 03:38:37;;;;;;;13.63;1.73;;;16.40;91.30;;;;;;5054673;28;20462;-91
2022/12/29 03:41:06;;;;;;;3.13;1.42;;;16.40;91.30;;;;;;5061005;28;20055;-92
2022/12/29 03:43:32;;;;;;;2.95;1.40;;;16.40;91.30;;;;;;5075100;28;20024;-93
2022/12/29 03:45:57;;;;;;;2.28;1.45;;;16.40;91.30;;;;;;5070878;28;20071;-90
2022/12/29 03:48:23;;;;;;;3.00;1.67;;;16.30;91.30;;;;;;5058175;28;20398;-91
2022/12/29 03:50:48;;;;;;;7.22;1.80;;;16.40;91.30;;;;;;5073758;28;20397;-91
2022/12/29 03:53:14;;;;;;;3.35;1.40;;;16.30;91.30;;;;;;5074599;28;20481;-92
2022/12/29 03:55:40;;;;;;;1.70;1.30;;;16.40;91.30;;;;;;5054711;28;20571;-91
2022/12/29 03:58:05;;;;;;;6.63;1.90;;;16.40;91.30;;;;;;5053785;28;20033;-92
2022/12/29 04:00:31;;;;;;;2.42;1.63;;;16.30;91.30;;;;;;5054710;28;20028;-92
2022/12/29 04:02:56;;;;;;;2.85;1.27;;;16.30;91.20;;;;;;5053537;28;20047;-92
2022/12/29 04:05:22;;;;;;;7.43;1.92;;;16.40;91.30;;;;;;5067460;28;20032;-92
2022/12/29 04:07:47;;;;;;;5.25;1.48;;;16.30;91.20;;;;;;5065218;28;20396;-90
2022/12/29 04:10:13;;;;;;;1.77;1.10;;;16.30;91.20;;;;;;5073094;28;20056;-90
2022/12/29 04:12:38;;;;;;;2.13;1.00;;;16.30;91.20;;;;;;5057030;28;20521;-91
2022/12/29 04:15:04;;;;;;;5.07;1.70;;;16.30;91.20;;;;;;5061086;28;20064;-92
2022/12/29 04:17:30;;;;;;;5.00;1.45;;;16.40;91.20;;;;;;5053171;28;20083;-92
2022/12/29 04:20:59;;;;;;;2.28;1.25;;;16.30;91.20;;;;;;5054767;28;20475;-92
2022/12/29 04:22:41;;;;;;;3.28;1.55;;;16.40;91.20;;;;;;5054834;28;20109;-91
2022/12/29 04:25:07;;;;;;;3.13;1.50;;;16.40;91.20;;;;;;5053277;28;20057;-92
2022/12/29 04:27:33;;;;;;;3.67;1.90;;;16.30;91.20;;;;;;5053470;28;20028;-93
2022/12/29 04:29:58;;;;;;;2.40;1.35;;;16.30;91.20;;;;;;5053612;28;20028;-92
2022/12/29 04:32:24;;;;;;;1.67;1.27;;;16.30;91.20;;;;;;5074108;28;20073;-91
2022/12/29 04:34:49;;;;;;;2.50;1.52;;;16.30;91.20;;;;;;5075065;28;20107;-92
2022/12/29 04:37:15;;;;;;;4.10;1.58;;;16.30;91.10;;;;;;5073981;28;20106;-91
2022/12/29 04:39:40;;;;;;;4.30;1.48;;;16.30;91.10;;;;;;5073316;28;20474;-89
2022/12/29 04:42:06;;;;;;;2.63;1.30;;;16.30;91.10;;;;;;5073990;28;20115;-91
2022/12/29 04:44:31;;;;;;;4.63;1.33;;;16.40;91.10;;;;;;5064308;28;20025;-91
2022/12/29 04:46:57;;;;;;;3.40;1.27;;;16.30;91.10;;;;;;5069238;28;20029;-92
2022/12/29 04:49:23;;;;;;;3.05;1.40;;;16.40;91.10;;;;;;5072563;28;20036;-92
2022/12/29 04:51:48;;;;;;;1.52;1.05;;;16.30;91.10;;;;;;5068270;28;20013;-92
2022/12/29 04:54:14;;;;;;;2.25;1.30;;;16.40;91.10;;;;;;5054598;28;20029;-93
2022/12/29 04:56:40;;;;;;;6.35;1.50;;;16.30;91.10;;;;;;5054741;28;20455;-90
2022/12/29 04:59:05;;;;;;;7.57;1.10;;;16.30;91.10;;;;;;5052708;28;20017;-90
2022/12/29 05:01:31;;;;;;;6.70;2.08;;;16.30;91.10;;;;;;5052220;28;20021;-92
2022/12/29 05:03:56;;;;;;;2.67;1.02;;;16.40;91.10;;;;;;5070762;28;20393;-91
2022/12/29 05:06:22;;;;;;;1.50;1.20;;;16.30;91.10;;;;;;5073061;28;20497;-92
2022/12/29 05:08:47;;;;;;;1.75;1.00;;;16.40;91.10;;;;;;5066758;28;20028;-92
2022/12/29 05:11:13;;;;;;;2.20;1.20;;;16.30;91.00;;;;;;5054876;28;20044;-92
2022/12/29 05:13:38;;;;;;;1.95;1.35;;;16.30;91.10;;;;;;5061605;28;20042;-93
2022/12/29 05:16:04;;;;;;;1.30;1.20;;;16.30;91.30;;;;;;5090148;28;20039;-92
2022/12/29 05:18:30;;;;;;;7.60;1.38;;;16.30;91.20;;;;;;5076290;28;20025;-92
2022/12/29 05:20:55;;;;;;;5.80;1.30;;;16.30;91.20;;;;;;5082357;28;20006;-94
2022/12/29 05:23:21;;;;;;;6.75;1.30;;;16.30;91.30;;;;;;5085071;28;20032;-92
2022/12/29 05:25:46;;;;;;;1.40;1.30;;;16.30;91.30;;;;;;5082989;28;20013;-92
2022/12/29 05:28:13;;;;;;;1.70;1.58;;;16.30;91.30;;;;;;5082112;28;20119;-90
2022/12/29 05:30:39;;;;;;;2.30;1.55;;;16.30;91.30;;;;;;5064298;28;20047;-92
2022/12/29 05:33:06;;;;;;;6.68;1.35;;;16.30;91.40;;;;;;5067437;28;20036;-92
2022/12/29 05:35:32;;;;;;;10.15;1.73;;;16.30;91.40;;;;;;5060990;28;20062;-91
2022/12/29 05:37:57;;;;;;;2.13;1.40;;;16.30;91.40;;;;;;5071166;28;20091;-89
2022/12/29 05:40:23;;;;;;;1.27;1.05;;;16.30;91.40;;;;;;5071632;28;20198;-90
2022/12/29 05:42:48;;;;;;;1.48;1.08;;;16.30;91.40;;;;;;5066736;28;20074;-88
2022/12/29 05:45:14;;;;;;;2.75;1.42;;;16.30;91.40;;;;;;5074994;28;20473;-90
2022/12/29 05:47:40;;;;;;;1.75;1.25;;;16.30;91.50;;;;;;5074954;28;20043;-88
2022/12/29 05:50:05;;;;;;;2.40;1.30;;;16.30;91.50;;;;;;5068388;28;20040;-89
2022/12/29 05:52:31;;;;;;;3.40;1.40;;;16.30;91.50;;;;;;5071673;28;20537;-89
2022/12/29 05:54:56;;;;;;;3.40;1.25;;;16.30;91.50;;;;;;5055319;28;20086;-89
2022/12/29 05:57:22;;;;;;;3.85;1.33;;;16.30;91.50;;;;;;5055122;28;20029;-89
2022/12/29 05:59:47;;;;;;;4.47;1.13;;;16.40;91.60;;;;;;5054691;28;20039;-89
2022/12/29 06:02:13;;;;;;;2.63;1.08;;;16.40;91.60;;;;;;5055600;28;20028;-88
2022/12/29 06:04:38;;;;;;;5.85;1.10;;;16.40;91.60;;;;;;5055622;28;20035;-88
2022/12/29 06:07:04;;;;;;;3.45;1.20;;;16.40;91.90;;;;;;5056448;28;20017;-89
2022/12/29 06:09:29;;;;;;;2.67;1.05;;;16.40;91.60;;;;;;5074291;28;20052;-88
2022/12/29 06:11:55;;;;;;;6.75;0.95;;;16.50;91.60;;;;;;5074343;28;20045;-90
2022/12/29 06:14:20;;;;;;;4.40;1.30;;;16.50;91.60;;;;;;5074172;28;20456;-88
2022/12/29 06:16:46;;;;;;;1.92;1.20;;;16.50;91.50;;;;;;5074035;28;20549;-89
2022/12/29 06:19:12;;;;;;;1.65;1.13;;;16.50;91.50;;;;;;5074043;28;20064;-88
2022/12/29 06:21:37;;;;;;;7.88;1.60;;;16.50;91.50;;;;;;5074207;28;20021;-88
2022/12/29 06:24:04;;;;;;;1.23;1.13;;;16.50;91.50;;;;;;5074839;28;20047;-88
2022/12/29 06:26:30;;;;;;;2.47;1.40;;;16.50;91.40;;;;;;5073875;28;20491;-89
2022/12/29 06:28:55;;;;;;;3.10;1.80;;;16.50;91.40;;;;;;5075341;28;20047;-89
2022/12/29 06:31:21;;;;;;;4.88;1.33;;;16.50;91.50;;;;;;5073683;28;20032;-89
2022/12/29 06:33:46;;;;;;;5.18;2.08;;;16.50;91.50;;;;;;5055026;28;20047;-89
2022/12/29 06:36:12;;;;;;;2.30;1.67;;;16.50;91.40;;;;;;5090666;28;20036;-88
2022/12/29 06:38:38;;;;;;;2.03;1.60;;;16.50;91.40;;;;;;5065547;28;20021;-88
2022/12/29 06:41:04;;;;;;;3.40;1.80;;;16.50;91.50;;;;;;5054013;28;20523;-89
2022/12/29 06:43:30;;;;;;;2.08;1.30;;;16.50;91.50;;;;;;5053761;28;20116;-89
2022/12/29 06:45:56;;;;;;;6.55;1.88;;;16.50;91.50;;;;;;5053796;28;20025;-89
2022/12/29 06:48:21;;;;;;;2.72;1.67;;;16.50;91.50;;;;;;5057493;28;20020;-87
2022/12/29 06:50:47;;;;;;;4.18;1.95;;;16.50;91.60;;;;;;5072727;28;20032;-89
2022/12/29 06:53:12;;;;;;;6.45;1.80;;;16.50;91.50;;;;;;5072969;28;20028;-89
2022/12/29 06:55:38;;;;;;;4.40;1.90;;;16.50;91.50;;;;;;5073483;28;20064;-88
2022/12/29 06:58:03;;;;;;;6.78;1.58;;;16.50;91.50;;;;;;5073439;28;20031;-89
2022/12/29 07:00:29;;;;;;;3.40;1.60;;;16.40;91.50;;;;;;5073055;28;20027;-88
2022/12/29 07:02:57;;;;;;;6.25;1.45;;;16.40;91.50;;;;;;5074500;28;20016;-89
2022/12/29 07:05:24;;;;;;;3.35;1.92;;;16.40;91.50;;;;;;5073209;28;20494;-89
2022/12/29 07:07:50;;;;;;;7.40;2.28;;;16.40;91.50;;;;;;5073260;28;20033;-88
2022/12/29 07:10:16;;;;;;;4.97;2.63;;;16.50;91.60;;;;;;5073319;28;20112;-89
2022/12/29 07:12:41;;;;;;;9.05;1.98;;;16.50;91.60;;;;;;5073085;28;20017;-89
2022/12/29 07:15:07;;;;;;;8.77;2.33;;;16.50;91.50;;;;;;5077036;28;20032;-93
2022/12/29 07:17:33;;;;;;;15.32;2.40;;;16.50;91.90;;;;;;5078907;28;20032;-92
2022/12/29 07:19:58;;;;;;;5.07;2.08;;;16.50;91.50;;;;;;5081470;28;20017;-93
2022/12/29 07:22:24;;;;;;;8.95;1.90;;;16.50;91.50;;;;;;5083500;28;20032;-94
2022/12/29 07:24:49;;;;;;;4.05;1.80;;;16.50;91.50;;;;;;5085624;28;20048;-93
2022/12/29 07:27:15;;;;;;;5.78;2.30;;;16.50;91.50;;;;;;5082431;28;20119;-95
2022/12/29 07:29:41;;;;;;;7.15;1.73;;;16.50;91.50;;;;;;5079791;28;20504;-93
2022/12/29 07:32:07;;;;;;;6.78;2.22;;;16.50;91.50;;;;;;5086531;28;20021;-94
2022/12/29 07:34:32;;;;;;;5.95;2.05;;;16.50;91.40;;;;;;5085599;28;20019;-94
2022/12/29 07:36:58;;;;;;;4.30;1.88;;;16.50;91.40;;;;;;5084139;28;20032;-94
2022/12/29 07:39:23;;;;;;;4.35;2.28;;;16.50;91.40;;;;;;5083758;28;20036;-95
2022/12/29 07:41:49;;;;;;;8.93;2.28;;;16.50;91.40;;;;;;5086714;28;20040;-93
2022/12/29 07:44:14;;;;;;;3.65;2.08;;;16.50;91.40;;;;;;5084691;28;20017;-93
2022/12/29 07:46:40;;;;;;;6.80;2.03;;;16.50;91.40;;;;;;5079938;28;20040;-93
2022/12/29 07:49:06;;;;;;;12.98;2.00;;;16.50;91.40;;;;;;5085810;28;20036;-93
2022/12/29 07:51:32;;;;;;;8.93;1.77;;;16.40;91.30;;;;;;5085527;28;20051;-93
2022/12/29 07:54:00;;;;;;;3.38;1.77;;;16.50;91.40;;;;;;5087013;28;20013;-93
2022/12/29 07:56:25;;;;;;;7.63;1.92;;;16.40;91.30;;;;;;5081260;28;20034;-94
2022/12/29 07:58:51;;;;;;;6.40;1.88;;;16.40;91.30;;;;;;5083112;28;20017;-94
2022/12/29 08:01:16;;;;;;;5.22;2.05;;;16.40;91.30;;;;;;5084602;28;20009;-92
2022/12/29 08:03:42;;;;;;;3.00;1.67;;;16.40;91.30;;;;;;5077000;28;20029;-94
2022/12/29 08:06:11;;;;;;;4.28;1.83;;;16.40;91.30;;;;;;5088068;28;20052;-93
2022/12/29 08:08:38;;;;;;;5.05;1.77;;;16.40;91.30;;;;;;5078388;28;20131;-93
2022/12/29 08:11:03;;;;;;;5.35;1.63;;;16.40;91.30;;;;;;5084467;28;20033;-93
2022/12/29 08:13:29;;;;;;;6.93;2.00;;;16.40;91.30;;;;;;5084217;28;20012;-92
2022/12/29 08:15:54;;;;;;;2.47;1.58;;;16.40;91.30;;;;;;5080106;28;20035;-92
2022/12/29 08:18:20;;;;;;;4.10;1.65;;;16.40;91.20;;;;;;5080402;28;20025;-94
2022/12/29 08:20:45;;;;;;;5.22;2.25;;;16.40;91.20;;;;;;5076970;28;20016;-93
2022/12/29 08:23:11;;;;;;;3.25;1.67;;;16.40;91.20;;;;;;5085637;28;20013;-93
2022/12/29 08:25:36;;;;;;;3.50;1.58;;;16.40;91.20;;;;;;5085618;28;20029;-93
2022/12/29 08:28:02;;;;;;;3.53;1.40;;;16.40;91.20;;;;;;5083468;28;20044;-93
2022/12/29 08:30:28;;;;;;;4.15;1.40;;;16.40;91.20;;;;;;5087388;28;20039;-93
2022/12/29 08:32:53;;;;;;;3.05;1.55;;;16.40;91.20;;;;;;5085047;28;20537;-93
2022/12/29 08:35:19;;;;;;;2.20;1.50;;;16.40;91.50;;;;;;5078768;28;20065;-92
2022/12/29 08:37:44;;;;;;;7.93;2.10;;;16.40;91.20;;;;;;5083294;28;20029;-94
2022/12/29 08:40:10;;;;;;;7.40;1.90;;;16.40;91.20;;;;;;5067297;28;20028;-92
2022/12/29 08:42:35;;;;;;;5.55;1.58;;;16.40;91.20;;;;;;5082145;28;20040;-93
2022/12/29 08:45:02;;;;;;;5.30;1.85;;;16.40;91.20;;;;;;5055031;28;20035;-91
2022/12/29 08:47:27;;;;;;;2.75;1.33;;;16.40;91.20;;;;;;5076898;28;20047;-93
2022/12/29 08:49:53;;;;;;;3.15;1.42;;;16.40;91.10;;;;;;5068619;28;20017;-91
2022/12/29 08:52:19;;;;;;;7.32;1.85;;;16.40;91.10;;;;;;5066933;28;20017;-92
2022/12/29 08:54:44;;;;;;;5.90;1.50;;;16.40;91.00;;;;;;5057514;28;20493;-90
2022/12/29 08:57:10;;;;;;;2.67;1.27;;;16.40;91.10;;;;;;5059527;28;20025;-92
2022/12/29 08:59:36;;;;;;;9.43;1.65;;;16.40;91.10;;;;;;5076502;28;20016;-91
2022/12/29 09:02:01;;;;;;;7.78;1.60;;;16.40;91.10;;;;;;5069154;28;20607;-91
2022/12/29 09:04:27;;;;;;;4.80;1.48;;;16.40;91.10;;;;;;5056611;28;20052;-92
2022/12/29 09:06:53;;;;;;;3.47;1.40;;;16.40;91.10;;;;;;5055814;28;20433;-93
2022/12/29 09:09:20;;;;;;;1.80;1.10;;;16.50;91.10;;;;;;5056064;28;20025;-91
2022/12/29 09:11:45;;;;;;;4.07;1.13;;;16.50;91.10;;;;;;5054982;28;20031;-91
2022/12/29 09:14:11;;;;;;;3.08;1.42;;;16.50;91.10;;;;;;5069569;28;20092;-91
2022/12/29 09:16:37;;;;;;;2.38;1.42;;;16.50;91.10;;;;;;5057653;28;20470;-92
2022/12/29 09:19:03;;;;;;;4.43;1.50;;;16.50;91.10;;;;;;5059502;28;20025;-93
2022/12/29 09:21:29;;;;;;;2.15;1.20;;;16.50;91.00;;;;;;5065384;28;20096;-92
2022/12/29 09:23:55;;;;;;;1.70;1.10;;;16.50;91.10;;;;;;5068884;28;20044;-92
2022/12/29 09:26:20;;;;;;;3.33;1.40;;;16.60;91.00;;;;;;5062199;28;20106;-90
2022/12/29 09:28:46;;;;;;;5.53;1.65;;;16.60;91.00;;;;;;5066623;28;20017;-91
2022/12/29 09:31:12;;;;;;;1.83;1.25;;;16.60;91.00;;;;;;5067956;28;20051;-90
2022/12/29 09:33:38;;;;;;;1.70;1.30;;;16.60;91.00;;;;;;5071628;28;20064;-91
2022/12/29 09:36:04;;;;;;;2.85;1.38;;;16.60;91.00;;;;;;5074359;28;20017;-92
2022/12/29 09:38:29;;;;;;;3.70;1.80;;;16.60;91.00;;;;;;5076884;28;20028;-92
2022/12/29 09:41:17;;;;;;;1.60;1.10;;;16.60;91.10;;;;;;5071488;28;20063;-92
2022/12/29 09:43:45;;;;;;;1.95;1.30;;;16.60;91.10;;;;;;5061324;28;20099;-91
2022/12/29 09:46:26;;;;;;;2.47;1.45;;;16.60;91.10;;;;;;5067009;28;20029;-91
2022/12/29 09:49:25;;;;;;;2.50;1.40;;;16.60;91.10;;;;;;5075292;28;20505;-92
2022/12/29 09:51:54;;;;;;;2.55;1.52;;;16.60;91.10;;;;;;5067730;28;20032;-93
2022/12/29 09:54:36;;;;;;;1.65;1.10;;;16.70;91.10;;;;;;5074107;28;20052;-92
2022/12/29 09:57:02;;;;;;;2.13;1.20;;;16.70;91.00;;;;;;5074661;28;20039;-92
2022/12/29 09:59:40;;;;;;;1.83;1.05;;;16.70;91.00;;;;;;5062586;28;20112;-93
2022/12/29 10:02:23;;;;;;;6.13;1.52;;;16.70;91.00;;;;;;5080100;28;20469;-91
2022/12/29 10:04:49;;;;;;;4.20;1.52;;;16.70;91.00;;;;;;5064327;28;20544;-92
2022/12/29 10:07:36;;;;;;;6.05;1.38;;;16.70;91.00;;;;;;5081049;28;20064;-92
2022/12/29 10:10:20;;;;;;;1.77;1.17;;;16.70;91.00;;;;;;5069683;28;20044;-92
2022/12/29 10:13:01;;;;;;;2.97;1.50;;;16.70;91.00;;;;;;5057031;28;20437;-88
2022/12/29 10:15:40;;;;;;;2.08;1.30;;;16.70;91.00;;;;;;5071173;28;20497;-90
2022/12/29 10:18:26;;;;;;;2.63;1.37;;;16.70;91.00;;;;;;5060421;28;20025;-89
2022/12/29 10:21:17;;;;;;;1.58;1.05;;;16.70;91.00;;;;;;5059518;28;20358;-90
2022/12/29 10:23:47;;;;;;;2.60;1.50;;;16.70;91.00;;;;;;5060703;28;20031;-91
2022/12/29 10:26:16;;;;;;;1.88;1.20;;;16.70;91.00;;;;;;5066756;28;20044;-88
2022/12/29 10:28:52;;;;;;;1.40;1.30;;;16.70;91.00;;;;;;5058259;28;20029;-88
2022/12/29 10:31:23;;;;;;;2.63;1.40;;;16.80;91.00;;;;;;5070694;28;20025;-88
2022/12/29 10:34:01;;;;;;;3.00;1.40;;;16.80;91.00;;;;;;5072215;28;20226;-90
2022/12/29 10:36:41;;;;;;;1.92;1.10;;;16.80;90.90;;;;;;5067131;28;20021;-90
2022/12/29 10:39:45;;;;;;;5.07;1.23;;;16.80;91.00;;;;;;5075543;28;20036;-93
2022/12/29 10:42:33;;;;;;;2.30;1.23;;;16.80;90.90;;;;;;5038793;28;20136;-93
2022/12/29 10:44:59;;;;;;;2.00;1.10;;;16.80;90.90;;;;;;5059253;28;20029;-91
2022/12/29 10:47:32;;;;;;;1.65;1.10;;;16.80;90.90;;;;;;5032216;28;20136;-93
2022/12/29 10:50:00;;;;;;;2.08;1.00;;;16.80;90.90;;;;;;5053270;28;20037;-93
2022/12/29 10:52:27;;;;;;;1.80;1.20;;;16.90;90.90;;;;;;5050527;28;20029;-93
2022/12/29 10:55:17;;;;;;;3.42;1.05;;;16.90;90.90;;;;;;5054624;28;20026;-91
2022/12/29 10:57:44;;;;;;;2.75;1.30;;;16.90;90.90;;;;;;5056285;28;20040;-92
2022/12/29 11:00:14;;;;;;;4.57;1.15;;;16.90;90.90;;;;;;5063436;28;20043;-92
2022/12/29 11:02:55;;;;;;;1.30;1.20;;;16.90;90.90;;;;;;5065725;28;20033;-93
2022/12/29 11:05:30;;;;;;;2.92;1.30;;;16.90;90.90;;;;;;5064426;28;20061;-93
2022/12/29 11:08:01;;;;;;;1.85;1.00;;;16.90;90.90;;;;;;5054425;28;20063;-93
2022/12/29 11:10:32;;;;;;;1.58;1.20;;;16.90;91.00;;;;;;5060695;28;20068;-90
2022/12/29 11:13:00;;;;;;;1.42;0.88;;;16.90;91.00;;;;;;5041661;28;20029;-89
2022/12/29 11:15:26;;;;;;;1.15;1.05;;;16.90;90.90;;;;;;5044490;28;20029;-93
2022/12/29 11:17:56;;;;;;;4.38;1.40;;;16.90;90.90;;;;;;5054771;28;20025;-93
2022/12/29 11:20:42;;;;;;;2.92;1.38;;;16.90;91.00;;;;;;5067625;28;20020;-93
2022/12/29 11:23:39;;;;;;;1.27;1.00;;;16.80;90.90;;;;;;5065796;28;20159;-93
2022/12/29 11:26:07;;;;;;;2.80;1.10;;;16.90;90.90;;;;;;5096310;28;20115;-92
2022/12/29 11:28:33;;;;;;;2.67;1.20;;;16.90;90.90;;;;;;5058872;28;20025;-93
2022/12/29 11:31:03;;;;;;;0.70;0.70;;;16.90;90.90;;;;;;5076881;28;20485;-93
2022/12/29 11:33:30;;;;;;;2.58;1.10;;;16.80;90.90;;;;;;5065605;28;20424;-92
2022/12/29 11:36:08;;;;;;;1.48;0.90;;;16.90;90.90;;;;;;5065231;28;20124;-91
2022/12/29 11:38:37;;;;;;;2.17;1.15;;;16.80;90.90;;;;;;5058223;28;20390;-92
2022/12/29 11:41:05;;;;;;;1.90;1.05;;;16.80;90.90;;;;;;5067848;28;20051;-91
2022/12/29 11:43:37;;;;;;;2.72;1.00;;;16.80;90.90;;;;;;5071642;28;20552;-90
2022/12/29 11:46:04;;;;;;;2.40;1.20;;;16.80;90.80;;;;;;5062796;28;20402;-93
2022/12/29 11:48:41;;;;;;;1.60;1.23;;;16.90;90.90;;;;;;5066875;28;20028;-91
2022/12/29 11:51:08;;;;;;;3.38;1.10;;;16.90;90.80;;;;;;5068249;28;20557;-92
2022/12/29 11:53:45;;;;;;;2.78;1.10;;;16.90;90.80;;;;;;5075203;28;20024;-92
2022/12/29 11:56:22;;;;;;;1.60;1.05;;;16.90;90.80;;;;;;5074080;28;20035;-93
2022/12/29 11:58:50;;;;;;;1.98;1.10;;;16.90;90.80;;;;;;5065816;28;20055;-93
2022/12/29 12:01:19;;;;;;;1.42;1.00;;;16.90;90.80;;;;;;5081836;28;20092;-91
2022/12/29 12:04:01;;;;;;;1.95;1.10;;;16.90;90.80;;;;;;5063299;28;20075;-90
2022/12/29 12:06:29;;;;;;;1.40;1.23;;;16.90;90.80;;;;;;5070477;28;20024;-92
2022/12/29 12:09:00;;;;;;;1.65;0.90;;;16.90;91.10;;;;;;5078608;28;20047;-93
2022/12/29 12:11:37;;;;;;;1.25;1.10;;;16.90;90.80;;;;;;5062215;28;20029;-92
2022/12/29 12:14:31;;;;;;;5.15;1.17;;;16.90;90.80;;;;;;5073928;28;20043;-90
2022/12/29 12:17:14;;;;;;;2.10;1.23;;;16.90;90.80;;;;;;5082955;28;20028;-92
2022/12/29 12:20:23;;;;;;;1.45;1.13;;;16.90;90.80;;;;;;5072769;28;20021;-91
2022/12/29 12:22:55;;;;;;;1.70;0.98;;;16.90;90.80;;;;;;5054447;28;20033;-92
2022/12/29 12:25:36;;;;;;;0.90;0.75;;;16.90;90.80;;;;;;5082428;28;20052;-90
2022/12/29 12:28:24;;;;;;;1.23;1.02;;;16.90;90.80;;;;;;5078982;28;20005;-93
2022/12/29 12:30:54;;;;;;;1.55;1.08;;;16.90;90.80;;;;;;5072936;28;20547;-92
2022/12/29 12:33:41;;;;;;;5.03;1.20;;;16.90;90.80;;;;;;5072189;28;20033;-91
2022/12/29 12:36:21;;;;;;;7.75;1.33;;;16.90;90.80;;;;;;5068599;28;20078;-91
2022/12/29 12:39:05;;;;;;;1.73;1.20;;;16.90;91.00;;;;;;5065369;28;20039;-92
2022/12/29 12:41:52;;;;;;;1.25;0.98;;;16.90;90.80;;;;;;5077585;28;20048;-91
2022/12/29 12:44:39;;;;;;;1.92;1.10;;;16.90;90.80;;;;;;5064975;28;20025;-93
2022/12/29 12:47:22;;;;;;;3.53;1.05;;;16.90;90.90;;;;;;5083003;28;20379;-92
2022/12/29 12:49:59;;;;;;;3.10;1.23;;;16.90;90.80;;;;;;5073455;28;20049;-91
2022/12/29 12:52:44;;;;;;;4.13;0.90;;;16.90;91.00;;;;;;5066384;28;20078;-92
2022/12/29 12:55:15;;;;;;;1.70;1.13;;;16.90;90.90;;;;;;5068902;28;20481;-92
2022/12/29 12:58:06;;;;;;;3.28;1.23;;;16.90;90.80;;;;;;5078110;28;20063;-91
2022/12/29 13:00:53;;;;;;;1.23;0.93;;;16.90;90.80;;;;;;5070556;28;20025;-93
2022/12/29 13:03:21;;;;;;;4.82;0.93;;;16.90;90.80;;;;;;5063845;28;20028;-90
2022/12/29 13:05:47;;;;;;;2.55;1.13;;;16.90;90.90;;;;;;5053280;28;20470;-92
2022/12/29 13:08:50;;;;;;;4.03;1.10;;;16.90;90.90;;;;;;5062005;28;20029;-92
2022/12/29 13:11:16;;;;;;;3.17;1.00;;;16.90;90.90;;;;;;5057511;28;20029;-93
2022/12/29 13:14:05;;;;;;;8.88;1.05;;;16.90;91.00;;;;;;5076395;28;20025;-93
2022/12/29 13:16:49;;;;;;;3.20;1.40;;;16.90;91.40;;;;;;5071747;28;20120;-93
2022/12/29 13:19:37;;;;;;;17.92;2.88;;;17.00;91.00;;;;;;5072569;28;20037;-92
2022/12/29 13:22:15;;;;;;;121.60;25.85;;;17.10;91.30;;;;;;5081152;28;20099;-93
2022/12/29 13:24:52;;;;;;;37.58;9.00;;;17.10;91.20;;;;;;5081614;28;20017;-92
2022/12/29 13:27:24;;;;;;;35.65;6.82;;;17.10;90.90;;;;;;5074085;28;20032;-93
2022/12/29 13:29:58;;;;;;;31.38;5.68;;;17.10;90.80;;;;;;5068417;28;20016;-92
2022/12/29 13:32:46;;;;;;;30.05;4.28;;;17.00;90.80;;;;;;5069091;28;20037;-92
2022/12/29 13:35:57;;;;;;;22.73;5.18;;;17.00;90.80;;;;;;5083833;28;20111;-92
2022/12/29 13:38:30;;;;;;;22.33;3.78;;;17.00;90.80;;;;;;5047588;28;20502;-92
2022/12/29 13:41:01;;;;;;;24.00;4.15;;;17.10;90.80;;;;;;5074124;28;20051;-92